createdAt,value
2019-03-04T00:01:46.092Z,100.00
2019-03-04T00:04:18.570Z,100.00
2019-03-04T00:06:50.270Z,100.00
2019-03-04T00:09:22.009Z,100.00
2019-03-04T00:11:53.638Z,99.35
2019-03-04T00:14:25.379Z,95.35
2019-03-04T00:16:58.581Z,94.17
2019-03-04T00:19:30.420Z,94.45
2019-03-04T00:22:02.151Z,95.83
2019-03-04T00:24:34.782Z,97.24
2019-03-04T00:27:06.379Z,99.10
2019-03-04T00:29:37.965Z,100.00
2019-03-04T00:32:09.613Z,100.00
2019-03-04T00:34:44.510Z,100.00
2019-03-04T00:37:16.369Z,100.00
2019-03-04T00:39:48.417Z,100.00
2019-03-04T00:42:23.140Z,100.00
2019-03-04T00:44:54.890Z,100.00
2019-03-04T00:47:26.756Z,100.00
2019-03-04T00:49:58.561Z,100.00
2019-03-04T00:52:29.961Z,100.00
2019-03-04T00:55:05.071Z,100.00
2019-03-04T00:57:36.736Z,100.00
2019-03-04T01:00:13.713Z,100.00
2019-03-04T01:02:45.487Z,100.00
2019-03-04T01:05:17.363Z,100.00
2019-03-04T01:07:49.080Z,100.00
2019-03-04T01:10:21.070Z,100.00
2019-03-04T01:12:52.754Z,100.00
2019-03-04T01:15:25.254Z,100.00
2019-03-04T01:17:57.865Z,100.00
2019-03-04T01:20:29.612Z,100.00
2019-03-04T01:23:01.347Z,100.00
2019-03-04T01:25:33.409Z,100.00
2019-03-04T01:28:05.031Z,100.00
2019-03-04T01:30:39.255Z,100.00
2019-03-04T01:33:10.959Z,100.00
2019-03-04T01:35:43.533Z,100.00
2019-03-04T01:38:15.594Z,100.00
2019-03-04T01:40:47.346Z,100.00
2019-03-04T01:43:19.029Z,100.00
2019-03-04T01:45:50.850Z,100.00
2019-03-04T01:48:23.838Z,100.00
2019-03-04T01:50:55.411Z,100.00
2019-03-04T01:53:27.043Z,100.00
2019-03-04T01:55:59.038Z,100.00
2019-03-04T01:58:30.649Z,100.00
2019-03-04T02:01:02.570Z,100.00
2019-03-04T02:03:34.476Z,100.00
2019-03-04T02:06:06.145Z,100.00
2019-03-04T02:08:37.804Z,100.00
2019-03-04T02:11:09.473Z,100.00
2019-03-04T02:13:41.005Z,100.00
2019-03-04T02:16:12.905Z,100.00
2019-03-04T02:18:44.582Z,100.00
2019-03-04T02:21:16.295Z,100.00
2019-03-04T02:23:48.477Z,100.00
2019-03-04T02:26:27.359Z,100.00
2019-03-04T02:28:59.383Z,100.00
2019-03-04T02:31:31.013Z,100.00
2019-03-04T02:34:03.177Z,100.00
2019-03-04T02:36:34.960Z,100.00
2019-03-04T02:39:08.000Z,100.00
2019-03-04T02:41:39.715Z,100.00
2019-03-04T02:44:11.388Z,100.00
2019-03-04T02:46:43.153Z,100.00
2019-03-04T02:49:14.933Z,100.00
2019-03-04T02:51:46.818Z,100.00
2019-03-04T02:54:18.487Z,100.00
2019-03-04T02:56:50.093Z,100.00
2019-03-04T02:59:21.732Z,100.00
2019-03-04T03:01:53.289Z,100.00
2019-03-04T03:04:24.946Z,100.00
2019-03-04T03:06:57.050Z,100.00
2019-03-04T03:09:28.671Z,100.00
2019-03-04T03:12:00.464Z,100.00
2019-03-04T03:14:32.121Z,100.00
2019-03-04T03:17:05.095Z,100.00
2019-03-04T03:19:36.842Z,100.00
2019-03-04T03:22:08.677Z,100.00
2019-03-04T03:24:40.483Z,100.00
2019-03-04T03:27:12.729Z,100.00
2019-03-04T03:29:44.443Z,100.00
2019-03-04T03:32:16.264Z,100.00
2019-03-04T03:34:47.848Z,100.00
2019-03-04T03:37:19.525Z,100.00
2019-03-04T03:39:51.250Z,100.00
2019-03-04T03:42:23.112Z,100.00
2019-03-04T03:44:54.914Z,100.00
2019-03-04T03:47:26.609Z,100.00
2019-03-04T03:49:58.750Z,100.00
2019-03-04T03:52:30.373Z,100.00
2019-03-04T03:55:02.030Z,100.00
2019-03-04T03:57:33.786Z,100.00
2019-03-04T04:00:07.240Z,100.00
2019-03-04T04:02:39.087Z,100.00
2019-03-04T04:05:10.982Z,100.00
2019-03-04T04:07:42.854Z,100.00
2019-03-04T04:10:15.154Z,100.00
2019-03-04T04:12:47.098Z,100.00
2019-03-04T04:15:19.256Z,100.00
2019-03-04T04:17:50.820Z,100.00
2019-03-04T04:20:22.583Z,100.00
2019-03-04T04:22:54.283Z,100.00
2019-03-04T04:25:26.123Z,100.00
2019-03-04T04:27:57.982Z,100.00
2019-03-04T04:30:31.432Z,100.00
2019-03-04T04:33:03.490Z,100.00
2019-03-04T04:35:35.428Z,100.00
2019-03-04T04:38:07.002Z,100.00
2019-03-04T04:40:38.819Z,100.00
2019-03-04T04:43:10.616Z,100.00
2019-03-04T04:45:42.378Z,100.00
2019-03-04T04:48:14.081Z,100.00
2019-03-04T04:50:45.685Z,100.00
2019-03-04T04:53:17.319Z,100.00
2019-03-04T04:55:49.063Z,100.00
2019-03-04T04:58:20.756Z,100.00
2019-03-04T05:00:53.080Z,100.00
2019-03-04T05:03:24.753Z,100.00
2019-03-04T05:05:56.400Z,100.00
2019-03-04T05:08:27.981Z,100.00
2019-03-04T05:10:59.681Z,100.00
2019-03-04T05:13:31.593Z,100.00
2019-03-04T05:16:03.490Z,100.00
2019-03-04T05:18:35.107Z,100.00
2019-03-04T05:21:06.855Z,100.00
2019-03-04T05:23:38.538Z,100.00
2019-03-04T05:26:10.390Z,100.00
2019-03-04T05:28:42.383Z,100.00
2019-03-04T05:31:14.017Z,100.00
2019-03-04T05:33:45.604Z,100.00
2019-03-04T05:36:17.286Z,100.00
2019-03-04T05:38:48.952Z,100.00
2019-03-04T05:41:20.630Z,100.00
2019-03-04T05:43:52.576Z,100.00
2019-03-04T05:46:24.270Z,100.00
2019-03-04T05:48:56.015Z,100.00
2019-03-04T05:51:27.652Z,100.00
2019-03-04T05:53:59.300Z,100.00
2019-03-04T05:56:30.954Z,100.00
2019-03-04T05:59:02.759Z,100.00
2019-03-04T06:01:36.859Z,100.00
2019-03-04T06:04:13.683Z,100.00
2019-03-04T06:06:55.272Z,100.00
2019-03-04T06:09:27.253Z,100.00
2019-03-04T06:11:58.892Z,100.00
2019-03-04T06:14:30.880Z,100.00
2019-03-04T06:17:02.695Z,100.00
2019-03-04T06:19:34.798Z,100.00
2019-03-04T06:22:07.126Z,100.00
2019-03-04T06:24:38.639Z,100.00
2019-03-04T06:27:10.822Z,100.00
2019-03-04T06:29:42.808Z,100.00
2019-03-04T06:32:14.606Z,100.00
2019-03-04T06:34:46.338Z,100.00
2019-03-04T06:37:17.958Z,100.00
2019-03-04T06:39:50.236Z,100.00
2019-03-04T06:42:22.061Z,100.00
2019-03-04T06:44:53.969Z,100.00
2019-03-04T06:47:25.617Z,100.00
2019-03-04T06:49:57.205Z,100.00
2019-03-04T06:52:29.342Z,100.00
2019-03-04T06:55:22.572Z,100.00
2019-03-04T06:57:55.700Z,100.00
2019-03-04T07:00:57.871Z,100.00
2019-03-04T07:03:46.602Z,100.00
2019-03-04T07:06:18.278Z,100.00
2019-03-04T07:09:17.235Z,100.00
2019-03-04T07:11:53.704Z,100.00
2019-03-04T07:14:25.575Z,100.00
2019-03-04T07:16:57.298Z,100.00
2019-03-04T07:19:31.437Z,100.00
2019-03-04T07:22:03.395Z,100.00
2019-03-04T07:24:35.010Z,100.00
2019-03-04T07:27:06.788Z,100.00
2019-03-04T07:29:38.488Z,100.00
2019-03-04T07:32:10.355Z,100.00
2019-03-04T07:34:42.400Z,100.00
2019-03-04T07:37:17.002Z,100.00
2019-03-04T07:39:48.630Z,100.00
2019-03-04T07:42:21.474Z,100.00
2019-03-04T07:44:54.477Z,100.00
2019-03-04T07:47:26.406Z,100.00
2019-03-04T07:49:58.120Z,100.00
2019-03-04T07:52:30.192Z,100.00
2019-03-04T07:55:02.325Z,100.00
2019-03-04T07:57:34.583Z,100.00
2019-03-04T08:00:07.157Z,100.00
2019-03-04T08:02:39.142Z,100.00
2019-03-04T08:05:11.460Z,100.00
2019-03-04T08:07:49.485Z,100.00
2019-03-04T08:11:33.863Z,100.00
2019-03-04T08:14:06.268Z,100.00
2019-03-04T08:16:38.430Z,100.00
2019-03-04T08:19:10.303Z,100.00
2019-03-04T08:21:42.679Z,95.06
2019-03-04T08:24:14.682Z,97.28
2019-03-04T08:26:46.512Z,94.04
2019-03-04T08:29:18.500Z,89.42
2019-03-04T08:31:50.201Z,89.68
2019-03-04T08:34:30.725Z,87.97
2019-03-04T08:36:56.179Z,91.76
2019-03-04T08:39:30.218Z,89.74
2019-03-04T08:42:02.541Z,83.09
2019-03-04T08:44:34.310Z,77.28
2019-03-04T08:47:06.712Z,81.30
2019-03-04T08:49:38.983Z,81.50
2019-03-04T08:52:11.182Z,84.22
2019-03-04T08:54:43.673Z,85.75
2019-03-04T08:57:15.864Z,85.33
2019-03-04T08:59:48.373Z,76.86
2019-03-04T09:02:20.105Z,66.33
2019-03-04T09:04:52.286Z,55.00
2019-03-04T09:07:24.028Z,55.53
2019-03-04T09:09:55.510Z,58.05
2019-03-04T09:12:28.000Z,57.07
2019-03-04T09:15:00.322Z,53.37
2019-03-04T09:17:33.142Z,55.36
2019-03-04T09:20:05.947Z,53.42
2019-03-04T09:22:37.784Z,56.62
2019-03-04T09:25:14.837Z,56.16
2019-03-04T09:27:48.280Z,53.23
2019-03-04T09:30:22.143Z,59.58
2019-03-04T09:32:53.991Z,62.89
2019-03-04T09:35:26.000Z,67.12
2019-03-04T09:37:57.954Z,70.32
2019-03-04T09:40:31.531Z,74.10
2019-03-04T09:43:03.169Z,76.81
2019-03-04T09:45:38.766Z,76.41
2019-03-04T09:48:08.260Z,75.98
2019-03-04T09:50:39.983Z,77.53
2019-03-04T09:53:11.705Z,75.05
2019-03-04T09:55:44.437Z,75.29
2019-03-04T09:58:17.083Z,74.93
2019-03-04T10:01:26.862Z,72.50
2019-03-04T10:04:32.159Z,72.85
2019-03-04T10:08:02.984Z,74.36
2019-03-04T10:11:39.245Z,76.99
2019-03-04T10:15:25.280Z,74.80
2019-03-04T10:19:07.655Z,77.08
2019-03-04T10:22:16.117Z,75.77
2019-03-04T10:25:16.876Z,72.56
2019-03-04T10:28:46.389Z,74.21
2019-03-04T10:31:59.368Z,76.74
2019-03-04T10:35:11.450Z,74.52
2019-03-04T10:38:30.279Z,71.94
2019-03-04T10:41:47.881Z,70.26
2019-03-04T10:44:55.325Z,68.64
2019-03-04T10:47:27.154Z,65.02
2019-03-04T10:49:59.034Z,65.14
2019-03-04T10:52:31.235Z,62.67
2019-03-04T10:55:03.162Z,61.98
2019-03-04T10:57:35.145Z,60.95
2019-03-04T11:00:15.479Z,55.08
2019-03-04T11:02:47.360Z,53.25
2019-03-04T11:05:19.750Z,53.77
2019-03-04T11:07:51.516Z,58.39
2019-03-04T11:10:23.276Z,58.98
2019-03-04T11:12:55.682Z,62.27
2019-03-04T11:15:28.125Z,59.55
2019-03-04T11:18:00.560Z,58.17
2019-03-04T11:20:32.563Z,56.36
2019-03-04T11:23:04.730Z,55.70
2019-03-04T11:25:36.672Z,50.94
2019-03-04T11:28:08.538Z,53.49
2019-03-04T11:30:40.829Z,49.61
2019-03-04T11:33:12.629Z,55.42
2019-03-04T11:35:44.429Z,56.46
2019-03-04T11:38:42.664Z,56.80
2019-03-04T11:41:21.901Z,56.36
2019-03-04T11:43:53.859Z,57.97
2019-03-04T11:46:25.705Z,50.60
2019-03-04T11:48:57.495Z,54.43
2019-03-04T11:51:29.287Z,55.82
2019-03-04T11:54:01.807Z,52.79
2019-03-04T11:56:37.084Z,47.96
2019-03-04T12:07:25.356Z,47.13
2019-03-04T12:09:57.450Z,47.19
2019-03-04T12:12:29.410Z,48.55
2019-03-04T12:15:01.606Z,48.77
2019-03-04T12:17:33.831Z,45.96
2019-03-04T12:20:06.686Z,46.37
2019-03-04T12:22:38.603Z,47.30
2019-03-04T12:25:13.660Z,47.26
2019-03-04T12:27:47.718Z,48.02
2019-03-04T12:30:20.655Z,47.28
2019-03-04T12:32:52.545Z,48.06
2019-03-04T12:35:24.423Z,46.69
2019-03-04T12:38:03.187Z,46.81
2019-03-04T12:40:35.062Z,48.02
2019-03-04T12:43:06.898Z,48.19
2019-03-04T12:45:38.755Z,47.90
2019-03-04T12:48:11.520Z,49.35
2019-03-04T12:50:43.208Z,49.88
2019-03-04T12:53:14.930Z,49.70
2019-03-04T12:55:46.961Z,47.89
2019-03-04T12:58:19.216Z,48.58
2019-03-04T13:00:50.882Z,46.49
2019-03-04T13:03:26.735Z,45.97
2019-03-04T13:05:58.463Z,45.10
2019-03-04T13:08:30.247Z,45.80
2019-03-04T13:11:02.043Z,46.51
2019-03-04T13:13:34.285Z,47.40
2019-03-04T13:16:06.433Z,47.65
2019-03-04T13:18:38.159Z,48.27
2019-03-04T13:21:10.649Z,47.95
2019-03-04T13:23:43.365Z,46.79
2019-03-04T13:26:15.209Z,47.64
2019-03-04T13:28:47.647Z,48.32
2019-03-04T13:31:19.341Z,46.61
2019-03-04T13:33:51.273Z,46.83
2019-03-04T13:36:23.134Z,44.62
2019-03-04T13:38:55.557Z,44.63
2019-03-04T13:41:27.336Z,43.48
2019-03-04T13:43:59.213Z,44.64
2019-03-04T13:46:31.100Z,43.10
2019-03-04T13:49:02.960Z,46.68
2019-03-04T13:51:35.088Z,46.23
2019-03-04T13:54:07.476Z,44.48
2019-03-04T13:56:40.100Z,43.95
2019-03-04T13:59:12.873Z,45.89
2019-03-04T14:01:44.436Z,47.41
2019-03-04T14:04:16.058Z,49.09
2019-03-04T14:06:47.918Z,48.88
2019-03-04T14:09:21.754Z,48.33
2019-03-04T14:11:53.633Z,48.87
2019-03-04T14:14:25.776Z,49.44
2019-03-04T14:16:58.080Z,50.00
2019-03-04T14:19:30.238Z,51.48
2019-03-04T14:22:02.334Z,52.13
2019-03-04T14:24:35.271Z,52.27
2019-03-04T14:27:07.972Z,51.50
2019-03-04T14:29:39.967Z,51.51
2019-03-04T14:32:11.592Z,51.64
2019-03-04T14:34:43.891Z,52.74
2019-03-04T14:37:18.207Z,49.85
2019-03-04T14:39:50.361Z,48.30
2019-03-04T14:42:22.662Z,48.32
2019-03-04T14:44:54.597Z,48.44
2019-03-04T14:47:26.411Z,47.81
2019-03-04T14:50:09.203Z,48.56
2019-03-04T14:52:33.466Z,50.53
2019-03-04T14:55:05.439Z,49.66
2019-03-04T14:57:37.604Z,51.00
2019-03-04T15:00:25.646Z,49.16
2019-03-04T15:02:57.719Z,48.58
2019-03-04T15:05:29.782Z,48.78
2019-03-04T15:08:01.679Z,48.51
2019-03-04T15:10:34.896Z,48.53
2019-03-04T15:13:07.189Z,49.06
2019-03-04T15:15:39.493Z,50.61
2019-03-04T15:18:11.809Z,51.44
2019-03-04T15:20:46.442Z,50.54
2019-03-04T15:23:18.878Z,49.95
2019-03-04T15:25:50.579Z,49.64
2019-03-04T15:28:28.254Z,50.20
2019-03-04T15:31:04.169Z,49.93
2019-03-04T15:33:38.358Z,50.97
2019-03-04T15:36:09.955Z,50.68
2019-03-04T15:38:42.345Z,50.81
2019-03-04T15:41:14.090Z,50.41
2019-03-04T15:43:45.959Z,51.29
2019-03-04T15:46:18.561Z,51.55
2019-03-04T15:48:50.959Z,51.51
2019-03-04T15:51:23.126Z,51.74
2019-03-04T15:53:55.847Z,51.53
2019-03-04T15:56:28.097Z,51.81
2019-03-04T15:59:00.294Z,51.22
2019-03-04T16:01:32.259Z,51.79
2019-03-04T16:04:04.199Z,52.48
2019-03-04T16:06:36.316Z,54.27
2019-03-04T16:09:16.145Z,54.90
2019-03-04T16:11:48.231Z,54.41
2019-03-04T16:14:20.280Z,55.52
2019-03-04T16:16:52.795Z,55.34
2019-03-04T16:19:24.903Z,56.05
2019-03-04T16:21:56.834Z,55.87
2019-03-04T16:24:28.774Z,56.82
2019-03-04T16:27:09.182Z,56.95
2019-03-04T16:29:41.018Z,58.19
2019-03-04T16:32:14.686Z,58.16
2019-03-04T16:34:46.397Z,58.37
2019-03-04T16:37:18.567Z,58.84
2019-03-04T16:39:50.880Z,59.18
2019-03-04T16:42:22.683Z,60.16
2019-03-04T16:44:54.601Z,60.00
2019-03-04T16:47:27.005Z,60.41
2019-03-04T16:49:58.927Z,60.72
2019-03-04T16:52:32.662Z,61.41
2019-03-04T16:55:05.700Z,61.28
2019-03-04T16:57:37.930Z,62.08
2019-03-04T17:00:13.108Z,63.04
2019-03-04T17:02:46.138Z,63.59
2019-03-04T17:05:19.240Z,64.02
2019-03-04T17:07:52.121Z,64.63
2019-03-04T17:10:24.268Z,64.76
2019-03-04T17:12:56.172Z,65.58
2019-03-04T17:15:28.110Z,66.55
2019-03-04T17:17:59.789Z,65.54
2019-03-04T17:20:31.908Z,66.92
2019-03-04T17:23:04.278Z,67.63
2019-03-04T17:25:36.996Z,67.35
2019-03-04T17:28:09.878Z,69.11
2019-03-04T17:30:43.035Z,68.79
2019-03-04T17:33:15.775Z,68.48
2019-03-04T17:35:48.163Z,69.21
2019-03-04T17:38:20.964Z,69.46
2019-03-04T17:40:56.404Z,69.04
2019-03-04T17:43:28.501Z,69.21
2019-03-04T17:46:01.667Z,69.24
2019-03-04T17:48:33.797Z,69.04
2019-03-04T17:51:06.295Z,69.83
2019-03-04T17:53:38.805Z,70.75
2019-03-04T17:56:11.020Z,71.64
2019-03-04T17:58:43.708Z,72.27
2019-03-04T18:01:15.961Z,71.40
2019-03-04T18:03:48.906Z,70.78
2019-03-04T18:06:20.907Z,70.74
2019-03-04T18:08:53.145Z,72.08
2019-03-04T18:11:25.653Z,73.31
2019-03-04T18:13:57.834Z,72.72
2019-03-04T18:16:30.120Z,73.59
2019-03-04T18:19:03.494Z,73.80
2019-03-04T18:21:37.701Z,74.02
2019-03-04T18:24:09.872Z,74.67
2019-03-04T18:27:17.592Z,74.02
2019-03-04T18:30:50.247Z,74.30
2019-03-04T18:34:32.366Z,74.56
2019-03-04T18:37:58.582Z,75.09
2019-03-04T18:41:49.288Z,75.53
2019-03-04T18:45:29.887Z,77.17
2019-03-04T18:48:56.523Z,77.17
2019-03-04T18:51:32.909Z,78.75
2019-03-04T18:54:11.872Z,79.16
2019-03-04T18:56:46.119Z,79.84
2019-03-04T18:59:18.370Z,78.89
2019-03-04T19:01:51.027Z,80.44
2019-03-04T19:04:23.298Z,81.09
2019-03-04T19:06:56.470Z,80.45
2019-03-04T19:09:33.011Z,81.26
2019-03-04T19:12:06.177Z,81.53
2019-03-04T19:14:39.690Z,80.98
2019-03-04T19:17:11.904Z,80.93
2019-03-04T19:19:45.787Z,81.53
2019-03-04T19:22:20.297Z,81.02
2019-03-04T19:24:53.250Z,81.92
2019-03-04T19:27:25.061Z,81.25
2019-03-04T19:29:57.760Z,82.36
2019-03-04T19:32:33.773Z,82.38
2019-03-04T19:35:06.963Z,82.50
2019-03-04T19:37:39.515Z,83.62
2019-03-04T19:40:12.609Z,83.63
2019-03-04T19:42:47.173Z,83.72
2019-03-04T19:45:20.748Z,84.27
2019-03-04T19:47:54.836Z,84.36
2019-03-04T19:50:27.122Z,84.18
2019-03-04T19:52:59.347Z,83.92
2019-03-04T19:55:31.576Z,84.64
2019-03-04T19:58:04.073Z,84.62
2019-03-04T20:00:36.302Z,84.49
2019-03-04T20:03:10.218Z,84.33
2019-03-04T20:05:48.231Z,84.57
2019-03-04T20:08:21.644Z,85.11
2019-03-04T20:10:54.764Z,84.74
2019-03-04T20:13:27.863Z,85.20
2019-03-04T20:16:00.238Z,85.29
2019-03-04T20:18:32.281Z,85.48
2019-03-04T20:21:05.895Z,85.95
2019-03-04T20:23:39.258Z,86.03
2019-03-04T20:26:11.482Z,86.36
2019-03-04T20:28:45.697Z,86.67
2019-03-04T20:31:18.502Z,86.87
2019-03-04T20:33:51.115Z,87.83
2019-03-04T20:36:23.439Z,87.58
2019-03-04T20:38:55.671Z,87.60
2019-03-04T20:41:28.143Z,87.75
2019-03-04T20:44:00.405Z,88.16
2019-03-04T20:46:32.381Z,88.59
2019-03-04T20:49:04.649Z,89.10
2019-03-04T20:51:38.430Z,88.91
2019-03-04T20:54:11.114Z,89.37
2019-03-04T20:56:43.221Z,89.24
2019-03-04T20:59:16.839Z,88.93
2019-03-04T21:01:49.703Z,89.16
2019-03-04T21:04:21.789Z,88.91
2019-03-04T21:06:53.977Z,89.13
2019-03-04T21:09:26.825Z,89.17
2019-03-04T21:11:59.007Z,89.06
2019-03-04T21:14:31.122Z,89.22
2019-03-04T21:17:02.813Z,88.95
2019-03-04T21:19:34.623Z,89.32
2019-03-04T21:22:06.755Z,89.24
2019-03-04T21:24:39.180Z,89.58
2019-03-04T21:27:11.492Z,90.06
2019-03-04T21:30:31.842Z,90.34
2019-03-04T21:33:21.889Z,90.38
2019-03-04T21:37:02.438Z,89.97
2019-03-04T21:39:36.776Z,90.41
2019-03-04T21:42:38.286Z,90.48
2019-03-04T21:45:38.381Z,90.66
2019-03-04T21:48:32.383Z,90.83
2019-03-04T21:51:38.201Z,91.15
2019-03-04T21:54:08.811Z,91.14
2019-03-04T21:57:23.239Z,91.39
2019-03-04T21:59:55.046Z,92.13
2019-03-04T22:02:45.803Z,92.20
2019-03-04T22:05:18.401Z,92.38
2019-03-04T22:07:50.756Z,92.38
2019-03-04T22:10:22.602Z,92.51
2019-03-04T22:12:54.525Z,92.69
2019-03-04T22:15:27.718Z,92.91
2019-03-04T22:18:00.074Z,93.73
2019-03-04T22:20:32.012Z,93.90
2019-03-04T22:23:04.015Z,95.15
2019-03-04T22:25:36.074Z,95.55
2019-03-04T22:28:08.211Z,95.96
2019-03-04T22:30:40.262Z,96.46
2019-03-04T22:33:11.903Z,97.46
2019-03-04T22:35:43.612Z,97.06
2019-03-04T22:38:16.154Z,97.73
2019-03-04T22:40:49.351Z,97.69
2019-03-04T22:43:21.010Z,98.39
2019-03-04T22:45:52.907Z,98.59
2019-03-04T22:48:25.165Z,99.00
2019-03-04T22:50:56.977Z,99.32
2019-03-04T22:53:28.896Z,99.50
2019-03-04T22:56:00.864Z,98.95
2019-03-04T22:58:32.904Z,98.41
2019-03-04T23:01:39.978Z,98.62
2019-03-04T23:05:13.807Z,98.75
2019-03-04T23:07:53.312Z,99.32
2019-03-04T23:10:59.712Z,100.00
2019-03-04T23:14:05.131Z,100.00
2019-03-04T23:16:37.499Z,100.00
2019-03-04T23:19:09.203Z,100.00
2019-03-04T23:21:43.365Z,100.00
2019-03-04T23:24:14.900Z,99.60
2019-03-04T23:26:46.573Z,99.25
2019-03-04T23:29:18.328Z,99.63
2019-03-04T23:31:50.560Z,99.10
2019-03-04T23:34:22.208Z,98.84
2019-03-04T23:36:53.817Z,98.99
2019-03-04T23:39:25.452Z,99.53
2019-03-04T23:41:57.534Z,99.55
2019-03-04T23:44:29.345Z,99.28
2019-03-04T23:47:01.004Z,99.63
2019-03-04T23:49:33.101Z,100.00
2019-03-04T23:52:05.258Z,100.00
2019-03-04T23:54:37.371Z,100.00
2019-03-04T23:57:09.285Z,100.00
2019-03-04T23:59:42.593Z,100.00
